createdAt,value
2022-10-15T00:04:56.179Z,425.25
2022-10-15T00:09:57.750Z,448.91803
2022-10-15T00:14:59.371Z,440.77419
2022-10-15T00:18:14.796Z,448.91803
2022-10-15T00:20:44.254Z,448.91803
2022-10-15T00:25:45.889Z,484.35088
2022-10-15T00:30:47.604Z,466.0339
2022-10-15T00:35:49.185Z,461.64706
2022-10-15T00:40:50.842Z,461.64706
2022-10-15T00:45:52.505Z,498.95495
2022-10-15T00:50:54.225Z,494
2022-10-15T00:55:55.944Z,470.49573
2022-10-15T01:00:57.678Z,479.65217
2022-10-15T01:05:59.292Z,504
2022-10-15T01:11:00.927Z,498.95495
2022-10-15T01:16:02.577Z,252
2022-10-15T01:21:04.278Z,466.0339
2022-10-15T01:26:05.871Z,484.35088
2022-10-15T01:31:07.613Z,504
2022-10-15T01:36:09.231Z,494
2022-10-15T01:41:10.851Z,498.95495
2022-10-15T01:46:12.488Z,494
2022-10-15T01:51:14.095Z,475.03448
2022-10-15T01:56:15.648Z,494
2022-10-15T02:01:17.259Z,525.13208
2022-10-15T02:06:18.882Z,519.70093
2022-10-15T02:11:20.493Z,504
2022-10-15T02:16:22.072Z,542.05825
2022-10-15T02:21:23.694Z,536.30769
2022-10-15T02:26:25.307Z,509.13761
2022-10-15T02:31:27.069Z,519.70093
2022-10-15T02:36:28.680Z,536.30769
2022-10-15T02:41:30.386Z,514.37037
2022-10-15T02:46:32.035Z,509.13761
2022-10-15T02:51:33.804Z,509.13761
2022-10-15T02:56:35.404Z,514.37037
2022-10-15T03:01:36.979Z,519.70093
2022-10-15T03:06:38.602Z,514.37037
2022-10-15T03:11:40.212Z,547.92157
2022-10-15T03:16:41.776Z,542.05825
2022-10-15T03:21:43.410Z,536.30769
2022-10-15T03:26:45.022Z,536.30769
2022-10-15T03:31:46.605Z,519.70093
2022-10-15T03:36:48.188Z,536.30769
2022-10-15T03:41:49.805Z,536.30769
2022-10-15T03:46:51.435Z,530.66667
2022-10-15T03:51:53.059Z,519.70093
2022-10-15T03:56:54.702Z,519.70093
2022-10-15T04:01:56.452Z,489.13274
2022-10-15T04:06:58.065Z,498.95495
2022-10-15T04:12:00.814Z,514.37037
2022-10-15T04:17:02.439Z,514.37037
2022-10-15T04:22:03.998Z,519.70093
2022-10-15T04:27:05.733Z,536.30769
2022-10-15T04:32:07.356Z,560
2022-10-15T04:37:08.963Z,560
2022-10-15T04:42:10.545Z,560
2022-10-15T04:47:12.105Z,566.22222
2022-10-15T04:52:13.737Z,566.22222
2022-10-15T04:57:15.320Z,553.90099
2022-10-15T05:02:17.026Z,566.22222
2022-10-15T05:07:18.722Z,560
2022-10-15T05:12:20.346Z,547.92157
2022-10-15T05:17:22.316Z,530.66667
2022-10-15T05:22:24.319Z,536.30769
2022-10-15T05:27:26.106Z,542.05825
2022-10-15T05:32:27.721Z,547.92157
2022-10-15T05:37:29.330Z,560
2022-10-15T05:42:30.910Z,560
2022-10-15T05:47:52.309Z,572.57143
2022-10-15T05:52:53.935Z,572.57143
2022-10-15T05:57:55.494Z,585.66667
2022-10-15T06:02:57.173Z,592.42105
2022-10-15T06:07:58.772Z,585.66667
2022-10-15T06:13:00.381Z,592.42105
2022-10-15T06:18:02.013Z,592.42105
2022-10-15T06:23:03.559Z,585.66667
2022-10-15T06:28:05.191Z,579.05155
2022-10-15T06:33:06.857Z,579.05155
2022-10-15T06:38:08.487Z,585.66667
2022-10-15T06:43:10.233Z,599.31915
2022-10-15T06:48:11.796Z,628.44444
2022-10-15T06:53:13.377Z,628.44444
2022-10-15T06:58:17.446Z,644
2022-10-15T07:03:20.948Z,628.44444
2022-10-15T07:08:23.593Z,628.44444
2022-10-15T07:13:25.214Z,613.56522
2022-10-15T07:18:26.815Z,620.92308
2022-10-15T07:23:28.399Z,606.36559
2022-10-15T07:28:30.110Z,606.36559
2022-10-15T07:33:31.770Z,613.56522
2022-10-15T07:38:33.443Z,620.92308
2022-10-15T07:43:35.034Z,628.44444
2022-10-15T07:48:36.631Z,620.92308
2022-10-15T07:53:38.317Z,606.36559
2022-10-15T07:58:39.895Z,613.56522
2022-10-15T08:03:41.548Z,606.36559
2022-10-15T08:08:43.159Z,606.36559
2022-10-15T08:13:44.723Z,613.56522
2022-10-15T08:18:46.351Z,606.36559
2022-10-15T08:23:48.010Z,613.56522
2022-10-15T08:28:49.611Z,613.56522
2022-10-15T08:33:51.238Z,606.36559
2022-10-15T08:38:52.859Z,628.44444
2022-10-15T08:43:54.610Z,644
2022-10-15T08:48:56.183Z,620.92308
2022-10-15T08:53:57.784Z,628.44444
2022-10-15T08:58:59.371Z,620.92308
2022-10-15T09:04:00.931Z,636.13483
2022-10-15T09:09:02.565Z,636.13483
2022-10-15T09:14:04.169Z,620.92308
2022-10-15T09:19:05.873Z,620.92308
2022-10-15T09:24:07.464Z,620.92308
2022-10-15T09:29:09.087Z,606.36559
2022-10-15T09:34:10.764Z,599.31915
2022-10-15T09:39:12.396Z,599.31915
2022-10-15T09:44:14.022Z,606.36559
2022-10-15T09:49:15.598Z,599.31915
2022-10-15T09:54:17.171Z,592.42105
2022-10-15T09:59:18.789Z,592.42105
2022-10-15T10:04:20.414Z,599.31915
2022-10-15T10:09:22.003Z,599.31915
2022-10-15T10:14:23.590Z,606.36559
2022-10-15T10:19:25.182Z,606.36559
2022-10-15T10:24:26.758Z,620.92308
2022-10-15T10:29:34.122Z,628.44444
2022-10-15T10:34:36.265Z,620.92308
2022-10-15T10:39:37.919Z,613.56522
2022-10-15T10:44:39.548Z,620.92308
2022-10-15T10:49:41.125Z,620.92308
2022-10-15T10:59:44.319Z,620.92308
2022-10-15T11:04:45.931Z,613.56522
2022-10-15T11:09:50.054Z,628.44444
2022-10-15T11:14:55.306Z,620.92308
2022-10-15T11:20:21.775Z,613.56522
2022-10-15T11:25:32.125Z,620.92308
2022-10-15T11:30:33.698Z,606.36559
2022-10-15T11:35:52.363Z,613.56522
2022-10-15T11:40:54.877Z,628.44444
2022-10-15T11:45:56.508Z,628.44444
2022-10-15T11:50:58.121Z,628.44444
2022-10-15T11:55:59.833Z,644
2022-10-15T12:01:01.436Z,628.44444
2022-10-15T12:06:03.045Z,636.13483
2022-10-15T12:11:04.680Z,620.92308
2022-10-15T12:16:06.264Z,613.56522
2022-10-15T12:21:07.875Z,606.36559
2022-10-15T12:26:09.701Z,613.56522
2022-10-15T12:31:11.324Z,628.44444
2022-10-15T12:36:12.932Z,628.44444
2022-10-15T12:41:14.583Z,599.31915
2022-10-15T12:46:16.149Z,628.44444
2022-10-15T12:51:17.697Z,628.44444
2022-10-15T12:56:19.441Z,620.92308
2022-10-15T13:01:21.160Z,628.44444
2022-10-15T13:06:22.846Z,628.44444
2022-10-15T13:11:24.483Z,599.31915
2022-10-15T13:16:26.095Z,606.36559
2022-10-15T13:21:27.812Z,599.31915
2022-10-15T13:26:29.475Z,606.36559
2022-10-15T13:31:31.191Z,599.31915
2022-10-15T13:36:32.821Z,613.56522
2022-10-15T13:41:34.452Z,636.13483
2022-10-15T13:46:36.123Z,628.44444
2022-10-15T13:51:37.729Z,620.92308
2022-10-15T13:56:39.382Z,620.92308
2022-10-15T14:01:41.019Z,620.92308
2022-10-15T14:06:42.702Z,628.44444
2022-10-15T14:11:44.388Z,628.44444
2022-10-15T14:16:45.979Z,628.44444
2022-10-15T14:21:47.597Z,620.92308
2022-10-15T14:26:49.224Z,613.56522
2022-10-15T14:31:50.825Z,599.31915
2022-10-15T14:36:52.421Z,599.31915
2022-10-15T14:41:54.064Z,606.36559
2022-10-15T14:46:55.743Z,599.31915
2022-10-15T14:51:57.339Z,613.56522
2022-10-15T14:56:58.962Z,628.44444
2022-10-15T15:02:02.841Z,628.44444
2022-10-15T15:07:05.328Z,628.44444
2022-10-15T15:12:06.948Z,613.56522
2022-10-15T15:17:08.544Z,620.92308
2022-10-15T15:22:10.141Z,592.42105
2022-10-15T15:27:11.763Z,585.66667
2022-10-15T15:32:13.341Z,599.31915
2022-10-15T15:37:14.960Z,592.42105
2022-10-15T15:42:16.539Z,592.42105
2022-10-15T15:47:18.144Z,592.42105
2022-10-15T15:52:19.744Z,585.66667
2022-10-15T15:57:21.331Z,585.66667
2022-10-15T16:02:22.939Z,599.31915
2022-10-15T16:07:28.130Z,599.31915
2022-10-15T16:12:30.105Z,606.36559
2022-10-15T16:17:31.718Z,620.92308
2022-10-15T16:22:33.345Z,599.31915
2022-10-15T16:27:34.955Z,585.66667
2022-10-15T16:32:36.530Z,585.66667
2022-10-15T16:37:38.098Z,579.05155
2022-10-15T16:42:39.726Z,572.57143
2022-10-15T16:47:41.295Z,560
2022-10-15T16:52:42.958Z,579.05155
2022-10-15T16:57:44.583Z,560
2022-10-15T17:02:46.147Z,547.92157
2022-10-15T17:07:47.771Z,504
2022-10-15T17:12:49.479Z,498.95495
2022-10-15T17:17:51.075Z,509.13761
2022-10-15T17:22:52.689Z,536.30769
2022-10-15T17:27:54.297Z,536.30769
2022-10-15T17:32:55.883Z,542.05825
2022-10-15T17:37:57.504Z,553.90099
2022-10-15T17:42:59.159Z,572.57143
2022-10-15T17:48:00.940Z,566.22222
2022-10-15T17:53:02.552Z,579.05155
2022-10-15T17:58:04.126Z,599.31915
2022-10-15T18:03:05.718Z,599.31915
2022-10-15T18:08:07.307Z,599.31915
2022-10-15T18:13:09.110Z,606.36559
2022-10-15T18:18:10.695Z,606.36559
2022-10-15T18:23:12.261Z,592.42105
2022-10-15T18:28:14.047Z,599.31915
2022-10-15T18:33:15.629Z,599.31915
2022-10-15T18:38:17.255Z,606.36559
2022-10-15T18:43:19.586Z,606.36559
2022-10-15T18:48:21.279Z,599.31915
2022-10-15T18:53:23.023Z,606.36559
2022-10-15T18:58:24.611Z,636.13483
2022-10-15T19:03:26.192Z,592.42105
2022-10-15T19:08:27.800Z,572.57143
2022-10-15T19:13:29.301Z,560
2022-10-15T19:18:30.875Z,572.57143
2022-10-15T19:23:32.434Z,579.05155
2022-10-15T19:28:34.127Z,579.05155
2022-10-15T19:33:35.813Z,606.36559
2022-10-15T19:38:37.469Z,592.42105
2022-10-15T19:43:39.059Z,599.31915
2022-10-15T19:48:40.664Z,579.05155
2022-10-15T19:53:42.312Z,572.57143
2022-10-15T19:58:43.901Z,585.66667
2022-10-15T20:03:45.478Z,579.05155
2022-10-15T20:08:47.095Z,585.66667
2022-10-15T20:13:48.711Z,560
2022-10-15T20:18:50.331Z,553.90099
2022-10-15T20:23:51.931Z,525.13208
2022-10-15T20:28:53.655Z,553.90099
2022-10-15T20:33:55.317Z,585.66667
2022-10-15T20:38:56.898Z,599.31915
2022-10-15T20:43:58.524Z,606.36559
2022-10-15T20:49:03.265Z,606.36559
2022-10-15T20:54:07.749Z,585.66667
2022-10-15T20:59:09.384Z,572.57143
2022-10-15T21:04:11.062Z,572.57143
2022-10-15T21:09:12.650Z,599.31915
2022-10-15T21:14:14.215Z,579.05155
2022-10-15T21:19:15.904Z,579.05155
2022-10-15T21:24:17.458Z,620.92308
2022-10-15T21:29:19.077Z,599.31915
2022-10-15T21:34:20.656Z,599.31915
2022-10-15T21:39:22.258Z,585.66667
2022-10-15T21:44:23.865Z,599.31915
2022-10-15T21:49:25.469Z,599.31915
2022-10-15T21:54:27.068Z,652.04598
2022-10-15T21:59:28.716Z,660.27907
2022-10-15T22:04:30.338Z,628.44444
2022-10-15T22:09:31.947Z,628.44444
2022-10-15T22:14:33.682Z,606.36559
2022-10-15T22:19:35.277Z,606.36559
2022-10-15T22:24:36.889Z,606.36559
2022-10-15T22:29:38.559Z,592.42105
2022-10-15T22:34:40.401Z,592.42105
2022-10-15T22:39:42.000Z,525.13208
2022-10-15T22:44:43.639Z,542.05825
2022-10-15T22:49:45.268Z,509.13761
2022-10-15T22:54:46.981Z,484.35088
2022-10-15T22:59:48.548Z,470.49573
2022-10-15T23:04:50.180Z,457.33333
2022-10-15T23:09:51.807Z,440.77419
2022-10-15T23:14:53.406Z,466.0339
2022-10-15T23:19:55.016Z,470.49573
2022-10-15T23:24:56.631Z,470.49573
2022-10-15T23:30:13.994Z,484.35088
2022-10-15T23:35:25.630Z,498.95495
2022-10-15T23:40:27.295Z,498.95495
2022-10-15T23:45:28.926Z,470.49573
2022-10-15T23:50:30.523Z,457.33333
2022-10-15T23:55:32.131Z,436.8
